createdAt,value
2024-01-05T00:00:35.788Z,84.60
2024-01-05T00:03:02.627Z,84.75
2024-01-05T00:05:29.947Z,84.58
2024-01-05T00:07:56.793Z,84.44
2024-01-05T00:10:23.593Z,84.79
2024-01-05T00:12:50.375Z,85.16
2024-01-05T00:15:17.110Z,84.54
2024-01-05T00:17:43.958Z,84.83
2024-01-05T00:20:12.166Z,84.89
2024-01-05T00:22:38.972Z,84.89
2024-01-05T00:25:05.871Z,84.98
2024-01-05T00:27:32.595Z,84.90
2024-01-05T00:29:59.548Z,84.92
2024-01-05T00:32:26.360Z,84.96
2024-01-05T00:34:53.912Z,84.95
2024-01-05T00:37:20.781Z,85.31
2024-01-05T00:39:47.539Z,85.01
2024-01-05T00:42:14.257Z,84.83
2024-01-05T00:44:42.144Z,84.70
2024-01-05T00:47:08.879Z,84.73
2024-01-05T00:49:36.106Z,84.75
2024-01-05T00:52:02.915Z,84.84
2024-01-05T00:54:29.623Z,85.20
2024-01-05T00:56:56.427Z,84.95
2024-01-05T00:59:23.164Z,85.05
2024-01-05T01:01:50.467Z,85.38
2024-01-05T01:04:18.391Z,85.00
2024-01-05T01:06:45.667Z,85.29
2024-01-05T01:09:12.602Z,84.87
2024-01-05T01:11:39.278Z,85.08
2024-01-05T01:14:05.982Z,85.07
2024-01-05T01:16:33.293Z,84.92
2024-01-05T01:19:00.815Z,84.94
2024-01-05T01:21:27.726Z,84.84
2024-01-05T01:23:54.673Z,85.07
2024-01-05T01:26:21.463Z,84.99
2024-01-05T01:28:48.124Z,84.86
2024-01-05T01:31:14.960Z,85.23
2024-01-05T01:33:42.000Z,85.02
2024-01-05T01:36:08.834Z,85.42
2024-01-05T01:38:35.601Z,85.28
2024-01-05T01:41:02.289Z,85.54
2024-01-05T01:43:29.394Z,85.74
2024-01-05T01:46:01.371Z,85.28
2024-01-05T01:48:28.984Z,85.02
2024-01-05T01:50:57.022Z,85.64
2024-01-05T01:53:26.101Z,85.69
2024-01-05T01:55:53.491Z,85.31
2024-01-05T01:58:22.499Z,85.58
2024-01-05T02:00:50.532Z,84.87
2024-01-05T02:03:18.581Z,85.74
2024-01-05T02:05:51.034Z,85.61
2024-01-05T02:08:17.869Z,85.33
2024-01-05T02:10:45.162Z,85.69
2024-01-05T02:13:12.002Z,85.88
2024-01-05T02:15:38.740Z,85.68
2024-01-05T02:18:15.881Z,85.36
2024-01-05T02:20:47.987Z,85.52
2024-01-05T02:23:28.444Z,85.23
2024-01-05T02:25:56.232Z,85.72
2024-01-05T02:28:23.405Z,85.58
2024-01-05T02:30:50.771Z,85.42
2024-01-05T02:33:17.942Z,85.57
2024-01-05T02:35:45.462Z,85.61
2024-01-05T02:38:12.170Z,85.17
2024-01-05T02:40:38.850Z,85.33
2024-01-05T02:43:05.702Z,85.46
2024-01-05T02:45:33.601Z,85.46
2024-01-05T02:48:00.633Z,85.88
2024-01-05T02:50:27.659Z,86.06
2024-01-05T02:52:54.352Z,85.82
2024-01-05T02:55:21.096Z,85.65
2024-01-05T02:57:47.797Z,85.64
2024-01-05T03:00:14.784Z,85.62
2024-01-05T03:02:42.236Z,85.79
2024-01-05T03:05:09.211Z,85.77
2024-01-05T03:07:36.474Z,85.78
2024-01-05T03:10:03.596Z,85.68
2024-01-05T03:12:30.389Z,86.03
2024-01-05T03:14:57.223Z,85.66
2024-01-05T03:17:23.910Z,85.68
2024-01-05T03:19:50.749Z,85.78
2024-01-05T03:22:17.886Z,85.39
2024-01-05T03:24:45.182Z,86.02
2024-01-05T03:27:16.155Z,85.79
2024-01-05T03:29:43.249Z,85.36
2024-01-05T03:32:10.204Z,85.49
2024-01-05T03:34:38.244Z,85.62
2024-01-05T03:37:05.219Z,86.03
2024-01-05T03:39:32.774Z,85.66
2024-01-05T03:41:59.628Z,85.40
2024-01-05T03:44:26.330Z,86.02
2024-01-05T03:46:53.346Z,85.97
2024-01-05T03:49:20.244Z,85.88
2024-01-05T03:51:47.084Z,86.00
2024-01-05T03:54:13.956Z,85.87
2024-01-05T03:56:44.588Z,85.96
2024-01-05T03:59:11.469Z,85.98
2024-01-05T04:01:48.911Z,85.96
2024-01-05T04:04:16.139Z,85.82
2024-01-05T04:06:43.997Z,85.81
2024-01-05T04:09:11.409Z,85.83
2024-01-05T04:11:41.519Z,85.81
2024-01-05T04:14:08.685Z,85.87
2024-01-05T04:16:36.079Z,86.20
2024-01-05T04:19:03.828Z,86.11
2024-01-05T04:21:31.003Z,85.88
2024-01-05T04:23:58.961Z,86.21
2024-01-05T04:26:25.921Z,86.19
2024-01-05T04:28:52.820Z,86.25
2024-01-05T04:31:19.956Z,86.21
2024-01-05T04:33:46.850Z,86.08
2024-01-05T04:36:17.146Z,85.94
2024-01-05T04:38:44.674Z,86.03
2024-01-05T04:41:16.493Z,86.11
2024-01-05T04:43:47.292Z,86.66
2024-01-05T04:46:14.012Z,86.32
2024-01-05T04:48:41.059Z,86.41
2024-01-05T04:51:07.938Z,86.20
2024-01-05T04:53:34.688Z,86.22
2024-01-05T04:56:01.419Z,86.02
2024-01-05T04:58:28.243Z,86.53
2024-01-05T05:00:55.527Z,86.06
2024-01-05T05:03:22.747Z,86.21
2024-01-05T05:05:49.765Z,86.13
2024-01-05T05:08:16.577Z,86.07
2024-01-05T05:10:43.498Z,86.21
2024-01-05T05:13:10.979Z,86.16
2024-01-05T05:15:38.880Z,86.16
2024-01-05T05:18:06.345Z,86.16
2024-01-05T05:20:33.132Z,85.79
2024-01-05T05:22:59.920Z,85.90
2024-01-05T05:25:26.781Z,86.11
2024-01-05T05:27:53.630Z,85.89
2024-01-05T05:30:20.481Z,86.30
2024-01-05T05:32:47.598Z,86.09
2024-01-05T05:35:14.364Z,86.02
2024-01-05T05:37:41.379Z,86.27
2024-01-05T05:40:08.700Z,85.86
2024-01-05T05:42:35.487Z,86.00
2024-01-05T05:45:02.228Z,86.38
2024-01-05T05:47:30.134Z,86.34
2024-01-05T05:49:56.911Z,85.99
2024-01-05T05:52:23.584Z,85.94
2024-01-05T05:54:50.278Z,86.44
2024-01-05T05:57:17.258Z,85.78
2024-01-05T05:59:44.091Z,86.20
2024-01-05T06:02:10.773Z,86.06
2024-01-05T06:04:37.648Z,85.68
2024-01-05T06:07:04.838Z,86.02
2024-01-05T06:09:31.595Z,86.10
2024-01-05T06:11:58.365Z,85.67
2024-01-05T06:14:25.122Z,85.71
2024-01-05T06:16:51.789Z,85.92
2024-01-05T06:19:18.590Z,85.94
2024-01-05T06:21:45.658Z,86.02
2024-01-05T06:24:12.583Z,85.87
2024-01-05T06:26:39.378Z,85.99
2024-01-05T06:29:06.136Z,86.15
2024-01-05T06:31:32.856Z,86.04
2024-01-05T06:34:02.415Z,86.23
2024-01-05T06:36:29.738Z,85.71
2024-01-05T06:38:56.612Z,85.86
2024-01-05T06:41:23.292Z,85.60
2024-01-05T06:43:49.976Z,86.04
2024-01-05T06:46:16.696Z,86.56
2024-01-05T06:48:43.653Z,86.28
2024-01-05T06:51:10.529Z,85.92
2024-01-05T06:53:37.788Z,86.43
2024-01-05T06:56:06.053Z,85.99
2024-01-05T06:58:34.307Z,86.41
2024-01-05T07:01:02.538Z,85.94
2024-01-05T07:03:29.712Z,86.27
2024-01-05T07:05:56.820Z,86.19
2024-01-05T07:08:23.527Z,85.97
2024-01-05T07:10:50.687Z,86.21
2024-01-05T07:13:17.368Z,86.38
2024-01-05T07:15:44.188Z,86.61
2024-01-05T07:18:11.074Z,86.21
2024-01-05T07:20:37.849Z,86.33
2024-01-05T07:23:04.606Z,86.20
2024-01-05T07:25:31.380Z,86.11
2024-01-05T07:27:58.102Z,86.22
2024-01-05T07:30:25.043Z,86.74
2024-01-05T07:32:51.890Z,86.21
2024-01-05T07:35:19.982Z,86.53
2024-01-05T07:37:47.664Z,86.46
2024-01-05T07:40:14.642Z,86.38
2024-01-05T07:42:41.930Z,86.72
2024-01-05T07:45:09.272Z,86.64
2024-01-05T07:47:36.290Z,86.20
2024-01-05T07:50:04.316Z,86.20
2024-01-05T07:52:31.047Z,86.60
2024-01-05T07:54:58.020Z,86.25
2024-01-05T07:57:24.818Z,86.60
2024-01-05T07:59:51.518Z,86.39
2024-01-05T08:02:18.305Z,86.53
2024-01-05T08:04:44.993Z,86.35
2024-01-05T08:07:11.725Z,86.49
2024-01-05T08:09:38.511Z,86.33
2024-01-05T08:12:05.628Z,86.37
2024-01-05T08:14:32.336Z,86.34
2024-01-05T08:16:59.505Z,86.25
2024-01-05T08:19:26.255Z,86.56
2024-01-05T08:21:52.971Z,86.02
2024-01-05T08:24:19.730Z,86.43
2024-01-05T08:26:46.440Z,86.26
2024-01-05T08:29:13.134Z,86.54
2024-01-05T08:31:40.760Z,86.10
2024-01-05T08:34:08.212Z,86.36
2024-01-05T08:36:35.428Z,86.30
2024-01-05T08:39:02.350Z,86.15
2024-01-05T08:41:29.141Z,86.12
2024-01-05T08:43:56.171Z,85.92
2024-01-05T08:46:23.031Z,85.88
2024-01-05T08:48:50.058Z,85.96
2024-01-05T08:51:16.965Z,85.67
2024-01-05T08:53:43.882Z,85.87
2024-01-05T08:56:11.375Z,85.80
2024-01-05T08:58:38.577Z,85.97
2024-01-05T09:01:05.610Z,85.85
2024-01-05T09:03:32.726Z,85.84
2024-01-05T09:06:00.267Z,85.65
2024-01-05T09:08:26.994Z,85.89
2024-01-05T09:10:54.002Z,86.00
2024-01-05T09:13:21.682Z,85.48
2024-01-05T09:15:48.480Z,86.01
2024-01-05T09:18:15.481Z,86.02
2024-01-05T09:20:43.298Z,85.71
2024-01-05T09:23:10.157Z,85.96
2024-01-05T09:25:39.846Z,85.96
2024-01-05T09:28:08.287Z,85.52
2024-01-05T09:30:35.159Z,85.94
2024-01-05T09:33:03.592Z,85.58
2024-01-05T09:35:30.813Z,85.85
2024-01-05T09:37:57.592Z,85.56
2024-01-05T09:40:25.665Z,85.57
2024-01-05T09:42:52.894Z,85.81
2024-01-05T09:45:23.545Z,85.35
2024-01-05T09:47:51.311Z,85.73
2024-01-05T09:50:19.418Z,85.67
2024-01-05T09:52:46.487Z,85.82
2024-01-05T09:55:13.211Z,85.90
2024-01-05T09:57:42.184Z,85.56
2024-01-05T10:00:13.986Z,85.84
2024-01-05T10:02:58.113Z,85.71
2024-01-05T10:05:26.602Z,85.65
2024-01-05T10:07:53.871Z,85.80
2024-01-05T10:10:20.823Z,85.89
2024-01-05T10:12:49.061Z,85.52
2024-01-05T10:15:15.944Z,85.95
2024-01-05T10:17:42.968Z,85.89
2024-01-05T10:20:13.511Z,85.64
2024-01-05T10:22:40.392Z,85.67
2024-01-05T10:25:27.576Z,85.78
2024-01-05T10:27:56.213Z,85.13
2024-01-05T10:30:30.973Z,85.11
2024-01-05T10:33:05.584Z,84.93
2024-01-05T10:35:35.786Z,85.25
2024-01-05T10:38:13.112Z,85.05
2024-01-05T10:40:39.874Z,84.97
2024-01-05T10:43:15.994Z,84.97
2024-01-05T10:45:46.185Z,84.91
2024-01-05T10:48:17.982Z,84.98
2024-01-05T10:50:45.728Z,84.58
2024-01-05T10:53:13.566Z,85.07
2024-01-05T10:55:41.640Z,84.99
2024-01-05T10:58:09.114Z,84.79
2024-01-05T11:00:37.497Z,84.71
2024-01-05T11:03:15.269Z,84.59
2024-01-05T11:05:44.793Z,84.34
2024-01-05T11:08:23.960Z,84.31
2024-01-05T11:11:36.715Z,84.35
2024-01-05T11:14:24.124Z,84.20
2024-01-05T11:17:00.005Z,84.13
2024-01-05T11:19:45.118Z,84.38
2024-01-05T11:22:18.006Z,84.21
2024-01-05T11:24:45.127Z,84.28
2024-01-05T11:27:32.096Z,83.87
2024-01-05T11:30:00.292Z,83.90
2024-01-05T11:32:47.757Z,83.33
2024-01-05T11:35:17.841Z,83.64
2024-01-05T11:37:45.301Z,83.92
2024-01-05T11:40:27.235Z,83.79
2024-01-05T11:42:54.273Z,83.51
2024-01-05T11:45:42.851Z,83.75
2024-01-05T11:48:09.832Z,83.67
2024-01-05T11:50:38.261Z,83.28
2024-01-05T11:53:29.318Z,83.97
2024-01-05T11:56:09.461Z,83.61
2024-01-05T11:58:38.061Z,83.69
2024-01-05T12:01:09.169Z,83.01
2024-01-05T12:03:36.914Z,83.04
2024-01-05T12:06:05.650Z,82.91
2024-01-05T12:08:33.423Z,82.52
2024-01-05T12:11:03.989Z,82.90
2024-01-05T12:13:34.459Z,82.38
2024-01-05T12:16:04.279Z,82.99
2024-01-05T12:18:38.234Z,82.37
2024-01-05T12:21:08.169Z,82.81
2024-01-05T12:23:36.406Z,82.67
2024-01-05T12:26:05.670Z,82.88
2024-01-05T12:28:37.272Z,82.54
2024-01-05T12:31:06.005Z,83.07
2024-01-05T12:33:36.187Z,82.48
2024-01-05T12:36:04.052Z,82.34
2024-01-05T12:38:32.643Z,82.29
2024-01-05T12:41:21.413Z,82.78
2024-01-05T12:43:52.683Z,82.27
2024-01-05T12:46:21.425Z,82.23
2024-01-05T12:48:48.650Z,82.20
2024-01-05T12:51:21.090Z,82.38
2024-01-05T12:53:58.676Z,82.35
2024-01-05T12:56:25.529Z,82.09
2024-01-05T12:58:52.326Z,82.24
2024-01-05T13:01:25.111Z,82.23
2024-01-05T13:03:53.982Z,82.15
2024-01-05T13:06:22.985Z,82.35
2024-01-05T13:08:50.823Z,81.88
2024-01-05T13:11:20.779Z,82.40
2024-01-05T13:13:48.135Z,82.01
2024-01-05T13:16:14.847Z,82.71
2024-01-05T13:18:42.046Z,82.38
2024-01-05T13:21:09.430Z,82.27
2024-01-05T13:23:36.309Z,82.14
2024-01-05T13:26:03.203Z,82.60
2024-01-05T13:28:30.166Z,82.54
2024-01-05T13:31:00.023Z,82.20
2024-01-05T13:33:27.166Z,82.66
2024-01-05T13:35:54.010Z,82.31
2024-01-05T13:38:23.424Z,82.23
2024-01-05T13:40:50.236Z,82.31
2024-01-05T13:43:17.049Z,81.79
2024-01-05T13:45:43.821Z,81.97
2024-01-05T13:48:10.876Z,82.06
2024-01-05T13:50:37.635Z,81.72
2024-01-05T13:53:05.299Z,81.60
2024-01-05T13:55:32.229Z,81.47
2024-01-05T13:57:59.127Z,81.94
2024-01-05T14:00:25.822Z,81.52
2024-01-05T14:02:52.670Z,81.75
2024-01-05T14:05:19.383Z,81.81
2024-01-05T14:07:46.786Z,81.75
2024-01-05T14:10:13.456Z,81.99
2024-01-05T14:12:40.312Z,81.73
2024-01-05T14:15:07.844Z,81.43
2024-01-05T14:17:34.656Z,81.52
2024-01-05T14:20:01.581Z,81.41
2024-01-05T14:22:28.368Z,81.74
2024-01-05T14:24:55.124Z,81.81
2024-01-05T14:27:22.055Z,81.93
2024-01-05T14:29:49.898Z,82.30
2024-01-05T14:32:16.787Z,82.58
2024-01-05T14:34:44.520Z,82.38
2024-01-05T14:37:11.529Z,82.30
2024-01-05T14:39:38.407Z,82.69
2024-01-05T14:42:05.553Z,82.48
2024-01-05T14:44:32.553Z,82.71
2024-01-05T14:46:59.439Z,82.19
2024-01-05T14:49:26.868Z,82.75
2024-01-05T14:51:56.845Z,82.63
2024-01-05T14:54:23.745Z,82.21
2024-01-05T14:56:50.943Z,82.22
2024-01-05T14:59:17.978Z,82.13
2024-01-05T15:01:44.833Z,82.38
2024-01-05T15:04:11.699Z,82.73
2024-01-05T15:06:39.270Z,82.83
2024-01-05T15:09:06.610Z,82.29
2024-01-05T15:11:33.829Z,82.47
2024-01-05T15:14:01.154Z,82.38
2024-01-05T15:16:28.799Z,82.81
2024-01-05T15:18:55.868Z,82.33
2024-01-05T15:21:26.666Z,82.46
2024-01-05T15:23:53.692Z,82.89
2024-01-05T15:26:20.627Z,82.47
2024-01-05T15:28:47.334Z,82.81
2024-01-05T15:31:21.804Z,82.58
2024-01-05T15:33:49.651Z,82.60
2024-01-05T15:36:18.850Z,83.34
2024-01-05T15:38:46.298Z,83.39
2024-01-05T15:41:13.478Z,83.21
2024-01-05T15:43:40.967Z,83.06
2024-01-05T15:46:09.925Z,83.33
2024-01-05T15:48:42.737Z,82.79
2024-01-05T15:51:16.446Z,83.75
2024-01-05T15:53:43.976Z,83.39
2024-01-05T15:56:11.503Z,83.99
2024-01-05T15:58:39.345Z,83.77
2024-01-05T16:01:08.599Z,83.54
2024-01-05T16:03:36.712Z,84.20
2024-01-05T16:06:03.762Z,84.32
2024-01-05T16:08:30.729Z,84.47
2024-01-05T16:10:58.968Z,84.37
2024-01-05T16:13:26.908Z,84.70
2024-01-05T16:15:53.714Z,84.88
2024-01-05T16:18:20.605Z,84.93
2024-01-05T16:20:47.679Z,85.26
2024-01-05T16:23:14.824Z,85.06
2024-01-05T16:25:44.775Z,85.03
2024-01-05T16:28:11.536Z,85.31
2024-01-05T16:30:38.558Z,85.57
2024-01-05T16:33:06.653Z,85.48
2024-01-05T16:35:33.550Z,85.57
2024-01-05T16:38:00.395Z,85.16
2024-01-05T16:40:27.393Z,84.89
2024-01-05T16:42:54.084Z,85.70
2024-01-05T16:45:20.983Z,85.45
2024-01-05T16:47:47.859Z,85.28
2024-01-05T16:50:14.990Z,85.19
2024-01-05T16:52:43.495Z,85.08
2024-01-05T16:55:11.256Z,85.07
2024-01-05T16:57:38.081Z,85.34
2024-01-05T17:00:06.149Z,85.21
2024-01-05T17:02:33.469Z,85.77
2024-01-05T17:05:00.561Z,85.27
2024-01-05T17:07:28.492Z,85.31
2024-01-05T17:09:55.578Z,84.99
2024-01-05T17:12:22.504Z,85.03
2024-01-05T17:14:49.487Z,85.27
2024-01-05T17:17:16.235Z,85.05
2024-01-05T17:19:43.180Z,85.13
2024-01-05T17:22:11.005Z,85.06
2024-01-05T17:24:40.711Z,84.78
2024-01-05T17:27:17.095Z,84.59
2024-01-05T17:29:48.237Z,84.87
2024-01-05T17:32:16.132Z,84.59
2024-01-05T17:34:44.919Z,84.96
2024-01-05T17:37:13.505Z,84.47
2024-01-05T17:39:42.304Z,84.69
2024-01-05T17:42:11.116Z,84.97
2024-01-05T17:44:41.768Z,84.86
2024-01-05T17:47:08.469Z,84.77
2024-01-05T17:49:35.299Z,84.72
2024-01-05T17:52:02.616Z,84.71
2024-01-05T17:54:29.550Z,84.71
2024-01-05T17:57:03.599Z,84.45
2024-01-05T17:59:30.460Z,84.26
2024-01-05T18:01:57.297Z,84.93
2024-01-05T18:04:26.360Z,84.43
2024-01-05T18:06:55.919Z,84.46
2024-01-05T18:09:22.840Z,84.85
2024-01-05T18:11:49.544Z,84.88
2024-01-05T18:14:16.373Z,85.04
2024-01-05T18:16:43.349Z,85.06
2024-01-05T18:19:10.659Z,84.98
2024-01-05T18:21:45.348Z,85.11
2024-01-05T18:24:13.287Z,85.32
2024-01-05T18:26:40.753Z,84.94
2024-01-05T18:29:16.899Z,84.91
2024-01-05T18:31:52.125Z,85.16
2024-01-05T18:34:23.307Z,85.18
2024-01-05T18:36:50.641Z,85.15
2024-01-05T18:39:17.667Z,85.25
2024-01-05T18:41:44.709Z,85.49
2024-01-05T18:44:14.764Z,84.87
2024-01-05T18:46:41.760Z,85.47
2024-01-05T18:49:09.189Z,85.54
2024-01-05T18:51:36.354Z,85.65
2024-01-05T18:54:07.457Z,85.62
2024-01-05T18:56:34.829Z,85.54
2024-01-05T18:59:03.093Z,85.57
2024-01-05T19:01:30.489Z,85.63
2024-01-05T19:03:58.532Z,85.78
2024-01-05T19:06:25.759Z,85.63
2024-01-05T19:08:53.022Z,85.88
2024-01-05T19:11:20.098Z,86.07
2024-01-05T19:13:47.056Z,85.99
2024-01-05T19:16:14.001Z,85.86
2024-01-05T19:18:40.969Z,85.59
2024-01-05T19:21:07.924Z,85.51
2024-01-05T19:23:35.041Z,85.92
2024-01-05T19:26:02.776Z,85.93
2024-01-05T19:28:29.854Z,85.92
2024-01-05T19:30:57.269Z,85.99
2024-01-05T19:33:24.473Z,85.66
2024-01-05T19:35:51.528Z,85.86
2024-01-05T19:38:19.005Z,86.00
2024-01-05T19:40:51.076Z,86.19
2024-01-05T19:43:18.336Z,86.20
2024-01-05T19:45:45.315Z,86.07
2024-01-05T19:48:12.329Z,85.75
2024-01-05T19:50:39.213Z,86.10
2024-01-05T19:53:06.389Z,85.78
2024-01-05T19:55:33.629Z,86.14
2024-01-05T19:58:00.971Z,86.22
2024-01-05T20:00:28.937Z,85.98
2024-01-05T20:02:55.893Z,85.79
2024-01-05T20:05:24.935Z,85.66
2024-01-05T20:07:52.156Z,85.64
2024-01-05T20:10:19.238Z,86.08
2024-01-05T20:12:47.299Z,85.86
2024-01-05T20:15:14.752Z,85.88
2024-01-05T20:17:41.696Z,85.89
2024-01-05T20:20:12.478Z,85.77
2024-01-05T20:22:40.428Z,85.87
2024-01-05T20:25:08.046Z,85.78
2024-01-05T20:27:42.154Z,86.02
2024-01-05T20:30:12.553Z,86.07
2024-01-05T20:32:42.609Z,85.81
2024-01-05T20:35:12.342Z,86.13
2024-01-05T20:37:40.552Z,86.13
2024-01-05T20:40:09.984Z,86.25
2024-01-05T20:42:37.932Z,85.96
2024-01-05T20:45:07.354Z,86.77
2024-01-05T20:47:34.658Z,86.37
2024-01-05T20:50:01.821Z,86.07
2024-01-05T20:52:28.618Z,86.62
2024-01-05T20:54:55.359Z,86.43
2024-01-05T20:57:22.152Z,86.72
2024-01-05T20:59:50.169Z,86.71
2024-01-05T21:02:17.138Z,86.81
2024-01-05T21:04:47.497Z,86.97
2024-01-05T21:07:16.039Z,86.66
2024-01-05T21:09:42.872Z,86.97
2024-01-05T21:12:10.462Z,86.71
2024-01-05T21:14:40.763Z,86.91
2024-01-05T21:17:08.068Z,86.83
2024-01-05T21:19:41.490Z,86.99
2024-01-05T21:22:08.578Z,87.05
2024-01-05T21:24:40.507Z,87.04
2024-01-05T21:27:07.385Z,86.76
2024-01-05T21:29:34.145Z,87.06
2024-01-05T21:32:00.858Z,87.18
2024-01-05T21:34:27.829Z,87.00
2024-01-05T21:36:54.665Z,86.86
2024-01-05T21:39:22.877Z,86.98
2024-01-05T21:41:49.872Z,87.30
2024-01-05T21:44:16.759Z,87.49
2024-01-05T21:46:43.560Z,86.98
2024-01-05T21:49:10.511Z,87.05
2024-01-05T21:51:37.561Z,86.71
2024-01-05T21:54:05.082Z,86.76
2024-01-05T21:56:31.958Z,86.47
2024-01-05T21:58:58.942Z,86.66
2024-01-05T22:01:25.667Z,86.79
2024-01-05T22:03:52.658Z,86.81
2024-01-05T22:06:19.894Z,86.28
2024-01-05T22:08:48.691Z,86.73
2024-01-05T22:11:16.051Z,86.56
2024-01-05T22:13:43.460Z,86.44
2024-01-05T22:16:19.617Z,86.35
2024-01-05T22:18:47.646Z,86.48
2024-01-05T22:21:15.098Z,86.46
2024-01-05T22:23:42.089Z,86.23
2024-01-05T22:26:18.288Z,86.35
2024-01-05T22:28:44.961Z,86.28
2024-01-05T22:31:11.710Z,86.52
2024-01-05T22:33:40.021Z,86.45
2024-01-05T22:36:11.259Z,86.81
2024-01-05T22:38:38.946Z,86.54
2024-01-05T22:41:07.072Z,86.54
2024-01-05T22:43:34.896Z,86.62
2024-01-05T22:46:05.610Z,86.59
2024-01-05T22:48:35.958Z,86.34
2024-01-05T22:51:03.641Z,86.81
2024-01-05T22:53:30.518Z,86.67
2024-01-05T22:55:57.231Z,86.51
2024-01-05T22:58:23.976Z,86.63
2024-01-05T23:00:50.797Z,86.58
2024-01-05T23:03:17.822Z,86.69
2024-01-05T23:05:44.578Z,86.69
2024-01-05T23:08:11.375Z,86.81
2024-01-05T23:10:38.121Z,86.77
2024-01-05T23:13:06.088Z,86.69
2024-01-05T23:15:36.430Z,86.72
2024-01-05T23:18:03.407Z,86.89
2024-01-05T23:20:31.552Z,86.79
2024-01-05T23:22:58.480Z,87.08
2024-01-05T23:25:25.165Z,86.90
2024-01-05T23:27:51.962Z,86.67
2024-01-05T23:30:19.065Z,86.54
2024-01-05T23:32:45.880Z,86.94
2024-01-05T23:35:13.415Z,86.39
2024-01-05T23:37:40.188Z,86.99
2024-01-05T23:40:07.577Z,86.88
2024-01-05T23:42:34.993Z,86.91
2024-01-05T23:45:01.735Z,86.77
2024-01-05T23:47:28.526Z,86.63
2024-01-05T23:49:55.845Z,86.63
2024-01-05T23:52:22.883Z,86.83
2024-01-05T23:54:49.686Z,86.30
2024-01-05T23:57:16.539Z,86.91
2024-01-05T23:59:43.298Z,86.66
